This site, now in its 15th season, is a labour of love and fun from one of Ottawa's most avid time trialists and number crunchers. It adheres to and is permitted by the laws of Canada, promotes the objectives of every bicycle club whose results are shown, and is donated free of charge by myself for your enjoyment and usage. If you would like results from series you ride in to be shown here, give me (celia@drmath.ca) a shout!


Index Page
ATT OTT WTT AATT CFCTT VVVTT
Help resultformat:
Case-sensitive

OBC Open TT Series - 1996-Aug-15 - 15km (Rockliffe Pkwy) (EvtFactor = 0.9647)

Weather (18:00): Mostly Cloudy. Temp.: 27.0C, Humidity: 64%, DewPoint: 19.6C, Wind: SE 9km/h, Pressure: 99.93kPa, Visibility: 12.9km, Humidex: 34.
Weather (19:00): Cloudy. Temp.: 26.0C, Humidity: 70%, DewPoint: 20.0C, Wind: SE 6km/h, Pressure: 99.93kPa, Visibility: 12.9km, Humidex: 34.
Weather (20:00): Thunderstorms, Rain Showers. Temp.: 24.7C, Humidity: 67%, DewPoint: 18.2C, Wind: SE 15km/h, Pressure: 99.82kPa, Visibility: 16.1km, Humidex: 31.

Send photos with description (when/where/what) of yourself on or off of bike to celia@drmath.ca

 
 

BESTS?
 
1 Roy, Patrick OBC 20:14 44.481 1/53 OVAM 1/15 0.9300
2 Reinisch, Stephen --- 20:33 43.796 2/53 OSEM 1/16 1.0196
3 Buffa, Alex  OBC 20:52 43.131 3/53 OSEM 2/16 0.9810
Datars, Paul  OBC 20:52 43.131 3/53 OVAM 2/15 0.9622
5 Murray, Ken OBC 21:06 42.654 5/53 OSEM 3/16 1.0024
6 Bennett, Michael OBC 21:08 42.587 6/53 OSEM 4/16 1.0335
7 Parkin, Brian OBC 21:11 42.486 7/53 OVAM 3/15 0.9743
8 Hamilton, Peter OBC 21:14 42.386 8/53 OSEM 5/16 1.0213
Roy, Eric --- 21:14 42.386 8/53 OSEM 5/16 0.8977
10 Campbell, Colin  OBC 21:17 42.287 10/53 OVAM 4/15  
11 Martignago, Mike OBC 21:20 42.188 11/53 OVAM 5/15 0.9814
12 Aller, Brian --- 21:23 42.089 12/53 OVAM 6/15  
13 Romkey, Gary OBC 21:29 41.893 13/53 OVBM 1/8 0.9792
14 St-Amour, Pierre OBC 21:38 41.602 14/53 OVAM 7/15 0.9680
15 Morewood, Arthur --- 21:39 41.570 15/53 OVBM 2/8 0.9748
16 Henschel, Peter OBC 21:49 41.253 16/53 OVAM 8/15 0.9350
17 Basu, Ben  OBC 21:50 41.221 17/53 OSEM 7/16 0.9616
18 Moerman, Bram  OBC 22:00 40.909 18/53 OVBM 3/8 1.0069
19 Higgins, Bryan OBC 22:10 40.602 19/53 OSEM 8/16 0.9274
20 Lage, Rick --- 22:25 40.149 20/53 OVAM 9/15 0.9934
21 Martin, Gilles OBC 22:34 39.882 21/53 OSEM 9/16 1.0313
22 Teske, Michael --- 22:42 39.648 22/53 OSEM 10/16 1.0133
23 Gilchrist, Ryan  OBC 22:44 39.589 23/53 OSEM 11/16 1.0266
24 Franks, Greg OBC 22:46 39.531 24/53 OVAM 10/15 1.0198
Murray, Val OBC 22:46 39.531 24/53 OJUM 1/2 0.9023
26 Dub, Denis OBC/ABC 22:51 39.387 26/53 OVAM 11/15  
27 Burge, Larry  --- 22:52 39.359 27/53 OSEM 12/16 0.9870
28 Humphreys, Les  OBC/ABC 22:53 39.330 28/53 OVCM 1/4 1.0132
Shadeed, Charles OBC 22:53 39.330 28/53 OVAM 12/15 1.1039
30 Bachman, Mike OBC 23:01 39.102 30/53 OVCM 2/4 0.9741
Y 31 Ménard, Monique OBC 23:06 38.961 31/53 OSEF 1/4 1.0891
32 Paterson, Mary OBC 23:10 38.849 32/53 OVAF 1/3 1.0130
33 Toth, Lazlo OBC 23:11 38.821 33/53 OVAM 13/15  
34 Rioux, Jean-Philippe --- 23:22 38.516 34/53 OJUM 2/2 0.9371
35 Atkinson, John OBC 23:24 38.462 35/53 OVAM 14/15 0.9414
36 Anderson, Allan OBC 23:29 38.325 36/53 OVAM 15/15 1.0171
37 Kuziak, Natalya OBC 23:30 38.298 37/53 OSEF 2/4 1.0106
38 Davison, Peter OBC 23:41 38.001 38/53 OVBM 4/8 1.2531
39 Sudac, Rick  OBC/RWR 23:44 37.921 39/53 OVBM 5/8 1.0955
40 Coleman, Don OBC 24:18 37.037 40/53 OVBM 6/8  
41 Sim, Phil --- 24:24 36.885 41/53 OSEM 13/16 0.9556
42 Levert, Martin --- 24:34 36.635 42/53 OSEM 14/16  
43 McInnis, Celia  OBC 24:50 36.242 43/53 OVAF 2/3 1.0183
44 Datars, Sally OBC 25:13 35.691 44/53 OSEF 3/4 1.0020
45 Desjardins, André --- 25:15 35.644 45/53 OSEM 15/16 0.9726
46 Moxley, Don OBC 25:34 35.202 46/53 OVBM 7/8 0.9145
47 Carr, Raymond OBC 26:10 34.395 47/53 OSEM 16/16 0.9475
Lennox, David OBC 26:10 34.395 47/53 OVCM 3/4 1.0231
49 Coleman, Sheila OBC 26:50 33.540 49/53 OVAF 3/3  
50 Pstross, Nick OBC 27:54 32.258 50/53 OVBM 8/8 0.9910
51 Lee, Daniel OBC 28:24 31.690 51/53 OVCM 4/4 1.0106
52 Day, Lee-Ann --- 29:01 31.017 52/53 OSEF 4/4  
53 Gagné, Caroline --- 29:35 30.423 53/53 OJUF 1/1 0.9551
 
Average Speed of all of the above 53 finishes (795km in 20:34:15):38.647
>>>Average of the Average Speeds for these 53 finishes38.957<<<
 

The number of data records shown above is 53
The server processing of your query took: 1 wallclock secs ( 0.09 usr + 0.00 sys = 0.09 CPU)

     


May 7 (10km) May 14 (10km) May 21 May 21 (10km) May 28 May 28 (10km)
Jun 4 Jun 4 (cancelled) Jun 6 Jun 9 (40km) Jun 11 Jun 11 Jun 18 Jun 18 Jun 25 Jun 25
Jul 2 Jul 2 Jul 8 Jul 9 Jul 11 Jul 13 (38km) Jul 14 (40km) Jul 15 Jul 16 (cancelled) Jul 18 Jul 20 (22km) Jul 23 Jul 23 Jul 25 Jul 30 Jul 30
Aug 1 Aug 3 (38km) Aug 6 Aug 6 Aug 13 Aug 13
  Aug 15  
Aug 18 (40km) Aug 20 Aug 20 Aug 22 Aug 24 (22km) Aug 27 Aug 27 (Invitational) Aug 29 Aug 31 (38km)
Sep 3 Sep 5 Sep 7 (22km) Sep 10 Sep 12 Sep 17 Sep 19 Sep 22 (40km) Sep 26

OTT Rankings
Best       Best by category
WTT Rankings for OBC Members
5 Best 15km     5 Best 15km by category
OBC Member Best Three 15km Rankings
Overall     by category
OBC BAR Ranking
Overall     by category     Rider "Consistency-Graph"
ABC BAR Ranking
Overall     by category     Rider "Consistency-Graph"
Other years
TT Calculator All TT People All TT events
ABC Home VVV Home
CKAP GOLD MEDAL
Other Links

Please send your comments and suggestions to: Celia McInnis
Copyright © 1998-2011 Celia McInnis. All rights reserved. Links are welcomed.